THYEMN LTAJ-LTAC
Flight info
| Callsign | THYEMN |
|---|---|
| Flight time | 1h 1m |
| Altitude | 34000 |
| Route | POGEN UL605 REMPO UA17 RATSI UL605 BELSU UA17 YUCEL |
| Aircraft | B738/M-SDE2E3FGHIRWXY/LB1 |
Departure
| Time | 2026-04-21 15:17 |
|---|---|
| Airport | Gaziantep Oğuzeli International Airport (LTAJ) |
Arrival
| Time | 2026-04-21 16:18 |
|---|---|
| Airport | Esenboğa International Airport (LTAC) |
| Time | Latitude | Longitude | Altitude | Speed | Heading |
|---|---|---|---|---|---|
| 2026-04-21 15:16 | 36.94472 | 37.49410 | 2321 ft | 1 kts | 285° |
| 2026-04-21 15:16 | 36.94498 | 37.49291 | 2321 ft | 46 kts | 285° |
| 2026-04-21 15:16 | 36.94685 | 37.48429 | 2322 ft | 153 kts | 283° |
| 2026-04-21 15:17 | 36.94968 | 37.46894 | 2903 ft | 192 kts | 283° |
| 2026-04-21 15:17 | 36.95196 | 37.45362 | 4218 ft | 183 kts | 283° |
| 2026-04-21 15:17 | 36.95571 | 37.43742 | 4845 ft | 212 kts | 287° |
| 2026-04-21 15:17 | 36.95992 | 37.41865 | 5639 ft | 238 kts | 284° |
| 2026-04-21 15:18 | 36.96392 | 37.39771 | 6425 ft | 263 kts | 282° |
| 2026-04-21 15:18 | 36.96796 | 37.37504 | 7439 ft | 276 kts | 282° |
| 2026-04-21 15:18 | 36.97213 | 37.35142 | 8582 ft | 284 kts | 282° |
| 2026-04-21 15:18 | 36.97649 | 37.32687 | 8989 ft | 296 kts | 282° |
| 2026-04-21 15:19 | 36.98100 | 37.30207 | 8990 ft | 288 kts | 283° |
| 2026-04-21 15:19 | 36.98549 | 37.27760 | 9002 ft | 285 kts | 283° |
| 2026-04-21 15:19 | 36.98990 | 37.25358 | 9001 ft | 286 kts | 283° |
| 2026-04-21 15:19 | 36.99433 | 37.22940 | 9000 ft | 286 kts | 283° |
| 2026-04-21 15:20 | 36.99895 | 37.20517 | 8999 ft | 286 kts | 286° |
| 2026-04-21 15:20 | 37.00674 | 37.18226 | 8999 ft | 286 kts | 302° |
| 2026-04-21 15:20 | 37.01930 | 37.16267 | 9576 ft | 299 kts | 314° |
| 2026-04-21 15:20 | 37.03383 | 37.14475 | 10751 ft | 303 kts | 316° |
| 2026-04-21 15:21 | 37.04966 | 37.12585 | 11267 ft | 328 kts | 316° |
| 2026-04-21 15:21 | 37.06640 | 37.10583 | 12215 ft | 337 kts | 316° |
| 2026-04-21 15:21 | 37.08345 | 37.08532 | 13209 ft | 344 kts | 316° |
| 2026-04-21 15:21 | 37.10050 | 37.06473 | 14201 ft | 348 kts | 316° |
| 2026-04-21 15:22 | 37.11854 | 37.04423 | 15162 ft | 353 kts | 321° |
| 2026-04-21 15:22 | 37.13802 | 37.02562 | 16092 ft | 358 kts | 323° |
| 2026-04-21 15:22 | 37.15824 | 37.00728 | 16989 ft | 363 kts | 324° |
| 2026-04-21 15:22 | 37.17857 | 36.98896 | 17846 ft | 368 kts | 324° |
| 2026-04-21 15:23 | 37.19947 | 36.97009 | 18694 ft | 372 kts | 324° |
| 2026-04-21 15:23 | 37.22040 | 36.95116 | 19501 ft | 377 kts | 324° |
| 2026-04-21 15:23 | 37.24179 | 36.93177 | 20295 ft | 381 kts | 324° |
| 2026-04-21 15:23 | 37.26310 | 36.91243 | 21045 ft | 386 kts | 324° |
| 2026-04-21 15:24 | 37.28499 | 36.89255 | 21788 ft | 390 kts | 324° |
| 2026-04-21 15:24 | 37.30683 | 36.87269 | 22492 ft | 394 kts | 324° |
| 2026-04-21 15:24 | 37.32913 | 36.85241 | 23183 ft | 398 kts | 324° |
| 2026-04-21 15:24 | 37.35156 | 36.83197 | 23848 ft | 402 kts | 324° |
| 2026-04-21 15:25 | 37.37423 | 36.81131 | 24492 ft | 406 kts | 324° |
| 2026-04-21 15:25 | 37.39713 | 36.79042 | 25118 ft | 410 kts | 324° |
| 2026-04-21 15:25 | 37.42018 | 36.76938 | 25720 ft | 414 kts | 324° |
| 2026-04-21 15:25 | 37.44329 | 36.74827 | 26302 ft | 417 kts | 324° |
| 2026-04-21 15:26 | 37.46683 | 36.72647 | 26871 ft | 421 kts | 322° |
| 2026-04-21 15:26 | 37.48940 | 36.70339 | 27418 ft | 425 kts | 318° |
| 2026-04-21 15:26 | 37.51080 | 36.67722 | 27961 ft | 428 kts | 314° |
| 2026-04-21 15:26 | 37.53121 | 36.65016 | 28477 ft | 432 kts | 313° |
| 2026-04-21 15:27 | 37.55179 | 36.62229 | 29013 ft | 434 kts | 313° |
| 2026-04-21 15:27 | 37.57200 | 36.59456 | 29639 ft | 434 kts | 313° |
| 2026-04-21 15:27 | 37.59208 | 36.56678 | 30274 ft | 433 kts | 312° |
| 2026-04-21 15:27 | 37.61239 | 36.53848 | 30919 ft | 432 kts | 312° |
| 2026-04-21 15:28 | 37.63238 | 36.51051 | 31547 ft | 430 kts | 312° |
| 2026-04-21 15:28 | 37.65223 | 36.48263 | 32159 ft | 429 kts | 312° |
| 2026-04-21 15:28 | 37.67190 | 36.45492 | 32755 ft | 428 kts | 312° |
| 2026-04-21 15:28 | 37.69165 | 36.42703 | 33344 ft | 426 kts | 312° |
| 2026-04-21 15:29 | 37.71137 | 36.39914 | 33883 ft | 425 kts | 312° |
| 2026-04-21 15:29 | 37.73086 | 36.37153 | 34006 ft | 428 kts | 312° |
| 2026-04-21 15:29 | 37.77050 | 36.31525 | 34000 ft | 428 kts | 311° |
| 2026-04-21 15:30 | 37.80980 | 36.25932 | 34000 ft | 426 kts | 311° |
| 2026-04-21 15:30 | 37.84913 | 36.20327 | 34000 ft | 426 kts | 311° |
| 2026-04-21 15:31 | 37.88840 | 36.14738 | 34000 ft | 427 kts | 311° |
| 2026-04-21 15:31 | 37.92759 | 36.09150 | 34000 ft | 427 kts | 311° |
| 2026-04-21 15:32 | 37.96679 | 36.03551 | 34000 ft | 427 kts | 311° |
| 2026-04-21 15:32 | 38.00612 | 35.97922 | 34000 ft | 427 kts | 311° |
| 2026-04-21 15:33 | 38.04524 | 35.92314 | 33999 ft | 427 kts | 311° |
| 2026-04-21 15:33 | 38.08438 | 35.86693 | 33999 ft | 427 kts | 311° |
| 2026-04-21 15:34 | 38.12370 | 35.81037 | 34000 ft | 427 kts | 311° |
| 2026-04-21 15:34 | 38.16283 | 35.75396 | 34000 ft | 427 kts | 311° |
| 2026-04-21 15:35 | 38.20180 | 35.69770 | 34000 ft | 427 kts | 311° |
| 2026-04-21 15:35 | 38.24085 | 35.64122 | 34000 ft | 427 kts | 311° |
| 2026-04-21 15:36 | 38.27994 | 35.58459 | 34000 ft | 427 kts | 311° |
| 2026-04-21 15:36 | 38.31898 | 35.52793 | 34000 ft | 427 kts | 311° |
| 2026-04-21 15:37 | 38.35789 | 35.47136 | 34000 ft | 427 kts | 311° |
| 2026-04-21 15:37 | 38.39703 | 35.41435 | 34000 ft | 427 kts | 311° |
| 2026-04-21 15:38 | 38.43581 | 35.35775 | 34000 ft | 427 kts | 311° |
| 2026-04-21 15:38 | 38.47473 | 35.30087 | 34000 ft | 427 kts | 311° |
| 2026-04-21 15:39 | 38.51374 | 35.24375 | 34000 ft | 427 kts | 311° |
| 2026-04-21 15:39 | 38.55226 | 35.18633 | 34000 ft | 427 kts | 310° |
| 2026-04-21 15:40 | 38.59029 | 35.12880 | 34000 ft | 427 kts | 310° |
| 2026-04-21 15:40 | 38.62848 | 35.07097 | 34000 ft | 427 kts | 310° |
| 2026-04-21 15:41 | 38.66664 | 35.01311 | 34000 ft | 427 kts | 310° |
| 2026-04-21 15:41 | 38.70476 | 34.95520 | 34000 ft | 427 kts | 310° |
| 2026-04-21 15:42 | 38.74306 | 34.89694 | 33999 ft | 427 kts | 310° |
| 2026-04-21 15:42 | 38.78109 | 34.83899 | 33999 ft | 427 kts | 310° |
| 2026-04-21 15:43 | 38.81912 | 34.78091 | 33999 ft | 427 kts | 310° |
| 2026-04-21 15:43 | 38.85722 | 34.72265 | 33999 ft | 427 kts | 310° |
| 2026-04-21 15:44 | 38.89508 | 34.66463 | 33999 ft | 427 kts | 310° |
| 2026-04-21 15:44 | 38.93318 | 34.60616 | 33999 ft | 427 kts | 310° |
| 2026-04-21 15:45 | 38.97100 | 34.54800 | 33999 ft | 427 kts | 310° |
| 2026-04-21 15:45 | 39.00901 | 34.48943 | 33999 ft | 427 kts | 310° |
| 2026-04-21 15:46 | 39.04691 | 34.43095 | 33999 ft | 427 kts | 310° |
| 2026-04-21 15:46 | 39.08461 | 34.37245 | 33999 ft | 427 kts | 309° |
| 2026-04-21 15:47 | 39.11797 | 34.30975 | 34000 ft | 427 kts | 301° |
| 2026-04-21 15:47 | 39.15213 | 34.24778 | 34002 ft | 427 kts | 310° |
| 2026-04-21 15:48 | 39.19128 | 34.19006 | 33999 ft | 427 kts | 311° |
| 2026-04-21 15:48 | 39.22977 | 34.13240 | 33999 ft | 427 kts | 310° |
| 2026-04-21 15:49 | 39.26812 | 34.07401 | 33999 ft | 427 kts | 310° |
| 2026-04-21 15:49 | 39.30619 | 34.01553 | 34000 ft | 427 kts | 310° |
| 2026-04-21 15:50 | 39.34396 | 33.95722 | 33999 ft | 427 kts | 310° |
| 2026-04-21 15:50 | 39.38206 | 33.89817 | 34000 ft | 427 kts | 310° |
| 2026-04-21 15:51 | 39.41961 | 33.83982 | 33740 ft | 420 kts | 310° |
| 2026-04-21 15:51 | 39.43812 | 33.81101 | 33004 ft | 421 kts | 310° |
| 2026-04-21 15:51 | 39.45678 | 33.78191 | 32262 ft | 420 kts | 309° |
| 2026-04-21 15:52 | 39.47520 | 33.75261 | 31556 ft | 419 kts | 309° |
| 2026-04-21 15:52 | 39.49320 | 33.72366 | 30852 ft | 417 kts | 309° |
| 2026-04-21 15:52 | 39.50524 | 33.70424 | 30371 ft | 417 kts | 309° |
| 2026-04-21 15:52 | 39.52931 | 33.66540 | 29392 ft | 415 kts | 309° |
| 2026-04-21 15:53 | 39.54813 | 33.63742 | 28822 ft | 413 kts | 314° |
| 2026-04-21 15:53 | 39.56927 | 33.61209 | 28280 ft | 422 kts | 321° |
| 2026-04-21 15:53 | 39.59347 | 33.59094 | 27674 ft | 417 kts | 333° |
| 2026-04-21 15:53 | 39.61990 | 33.57728 | 27107 ft | 410 kts | 343° |
| 2026-04-21 15:54 | 39.64722 | 33.56746 | 26538 ft | 403 kts | 346° |
| 2026-04-21 15:54 | 39.67400 | 33.55893 | 25985 ft | 401 kts | 347° |
| 2026-04-21 15:54 | 39.70135 | 33.55055 | 25421 ft | 403 kts | 347° |
| 2026-04-21 15:54 | 39.72772 | 33.54106 | 24850 ft | 397 kts | 341° |
| 2026-04-21 15:55 | 39.75303 | 33.52725 | 24289 ft | 390 kts | 333° |
| 2026-04-21 15:55 | 39.77600 | 33.50919 | 23736 ft | 386 kts | 323° |
| 2026-04-21 15:55 | 39.79531 | 33.48521 | 23193 ft | 390 kts | 311° |
| 2026-04-21 15:55 | 39.81231 | 33.45844 | 22621 ft | 384 kts | 309° |
| 2026-04-21 15:56 | 39.82849 | 33.43142 | 22070 ft | 378 kts | 308° |
| 2026-04-21 15:56 | 39.84446 | 33.40426 | 21525 ft | 372 kts | 308° |
| 2026-04-21 15:56 | 39.86002 | 33.37748 | 20997 ft | 377 kts | 307° |
| 2026-04-21 15:56 | 39.87550 | 33.35063 | 20447 ft | 372 kts | 307° |
| 2026-04-21 15:57 | 39.89079 | 33.32392 | 19908 ft | 366 kts | 306° |
| 2026-04-21 15:57 | 39.90588 | 33.29743 | 19376 ft | 360 kts | 306° |
| 2026-04-21 15:57 | 39.92081 | 33.27117 | 18857 ft | 364 kts | 306° |
| 2026-04-21 15:57 | 39.93582 | 33.24471 | 18316 ft | 360 kts | 306° |
| 2026-04-21 15:58 | 39.95046 | 33.21885 | 17847 ft | 353 kts | 306° |
| 2026-04-21 15:58 | 39.96486 | 33.19340 | 17339 ft | 352 kts | 306° |
| 2026-04-21 15:58 | 39.97925 | 33.16793 | 16904 ft | 344 kts | 306° |
| 2026-04-21 15:58 | 39.99304 | 33.14336 | 16533 ft | 336 kts | 304° |
| 2026-04-21 15:59 | 40.00662 | 33.11887 | 16219 ft | 327 kts | 315° |
| 2026-04-21 15:59 | 40.02508 | 33.10357 | 16037 ft | 314 kts | 340° |
| 2026-04-21 15:59 | 40.04616 | 33.09855 | 15834 ft | 304 kts | 1° |
| 2026-04-21 15:59 | 40.06640 | 33.10410 | 15478 ft | 301 kts | 22° |
| 2026-04-21 16:00 | 40.08478 | 33.11692 | 15132 ft | 298 kts | 33° |
| 2026-04-21 16:00 | 40.10175 | 33.13238 | 14789 ft | 295 kts | 36° |
| 2026-04-21 16:00 | 40.11814 | 33.14823 | 14460 ft | 292 kts | 36° |
| 2026-04-21 16:00 | 40.13424 | 33.16386 | 14138 ft | 290 kts | 36° |
| 2026-04-21 16:01 | 40.15025 | 33.17932 | 13818 ft | 287 kts | 36° |
| 2026-04-21 16:01 | 40.16627 | 33.19473 | 13498 ft | 284 kts | 36° |
| 2026-04-21 16:01 | 40.18212 | 33.20994 | 13182 ft | 282 kts | 36° |
| 2026-04-21 16:01 | 40.19783 | 33.22502 | 12870 ft | 280 kts | 36° |
| 2026-04-21 16:02 | 40.21339 | 33.23996 | 12558 ft | 278 kts | 36° |
| 2026-04-21 16:02 | 40.22893 | 33.25487 | 12250 ft | 276 kts | 36° |
| 2026-04-21 16:02 | 40.24429 | 33.26963 | 11944 ft | 274 kts | 36° |
| 2026-04-21 16:02 | 40.25966 | 33.28440 | 11639 ft | 272 kts | 36° |
| 2026-04-21 16:03 | 40.27490 | 33.29905 | 11336 ft | 271 kts | 36° |
| 2026-04-21 16:03 | 40.28999 | 33.31357 | 11035 ft | 269 kts | 36° |
| 2026-04-21 16:03 | 40.30502 | 33.32804 | 10737 ft | 268 kts | 36° |
| 2026-04-21 16:03 | 40.31994 | 33.34240 | 10440 ft | 266 kts | 36° |
| 2026-04-21 16:04 | 40.33482 | 33.35674 | 10143 ft | 265 kts | 36° |
| 2026-04-21 16:04 | 40.34941 | 33.37082 | 9851 ft | 263 kts | 36° |
| 2026-04-21 16:04 | 40.36414 | 33.38503 | 9551 ft | 262 kts | 36° |
| 2026-04-21 16:04 | 40.37883 | 33.39912 | 9273 ft | 260 kts | 36° |
| 2026-04-21 16:05 | 40.39328 | 33.41288 | 9175 ft | 253 kts | 36° |
| 2026-04-21 16:05 | 40.40765 | 33.42635 | 8936 ft | 254 kts | 32° |
| 2026-04-21 16:05 | 40.42306 | 33.43692 | 8683 ft | 252 kts | 21° |
| 2026-04-21 16:05 | 40.43973 | 33.44344 | 8433 ft | 250 kts | 10° |
| 2026-04-21 16:06 | 40.45684 | 33.44557 | 8185 ft | 249 kts | 359° |
| 2026-04-21 16:06 | 40.47403 | 33.44329 | 7934 ft | 248 kts | 348° |
| 2026-04-21 16:06 | 40.49003 | 33.43521 | 7665 ft | 247 kts | 321° |
| 2026-04-21 16:06 | 40.49961 | 33.41711 | 7415 ft | 246 kts | 284° |
| 2026-04-21 16:07 | 40.49897 | 33.39517 | 7167 ft | 245 kts | 248° |
| 2026-04-21 16:07 | 40.48836 | 33.37807 | 6926 ft | 244 kts | 214° |
| 2026-04-21 16:07 | 40.47440 | 33.36573 | 6707 ft | 244 kts | 215° |
| 2026-04-21 16:07 | 40.46067 | 33.35280 | 6453 ft | 243 kts | 216° |
| 2026-04-21 16:08 | 40.43328 | 33.32690 | 5945 ft | 241 kts | 217° |
| 2026-04-21 16:08 | 40.42048 | 33.31291 | 5694 ft | 240 kts | 221° |
| 2026-04-21 16:08 | 40.40803 | 33.29834 | 5544 ft | 236 kts | 221° |
| 2026-04-21 16:09 | 40.39671 | 33.28416 | 5562 ft | 219 kts | 232° |
| 2026-04-21 16:09 | 40.39262 | 33.26660 | 5541 ft | 192 kts | 276° |
| 2026-04-21 16:09 | 40.39662 | 33.25108 | 5539 ft | 169 kts | 291° |
| 2026-04-21 16:09 | 40.39946 | 33.23667 | 5537 ft | 161 kts | 275° |
| 2026-04-21 16:10 | 40.39859 | 33.22215 | 5552 ft | 160 kts | 255° |
| 2026-04-21 16:10 | 40.39358 | 33.20913 | 5555 ft | 160 kts | 233° |
| 2026-04-21 16:10 | 40.38641 | 33.19797 | 5553 ft | 161 kts | 226° |
| 2026-04-21 16:10 | 40.37830 | 33.18771 | 5549 ft | 160 kts | 221° |
| 2026-04-21 16:11 | 40.36966 | 33.17843 | 5550 ft | 160 kts | 217° |
| 2026-04-21 16:11 | 40.36053 | 33.17011 | 5550 ft | 160 kts | 212° |
| 2026-04-21 16:11 | 40.35089 | 33.16272 | 5550 ft | 160 kts | 208° |
| 2026-04-21 16:11 | 40.34092 | 33.15641 | 5550 ft | 160 kts | 203° |
| 2026-04-21 16:12 | 40.33402 | 33.15274 | 5550 ft | 160 kts | 200° |
| 2026-04-21 16:12 | 40.31977 | 33.14685 | 5550 ft | 160 kts | 194° |
| 2026-04-21 16:12 | 40.30886 | 33.14375 | 5550 ft | 160 kts | 189° |
| 2026-04-21 16:12 | 40.29789 | 33.14175 | 5550 ft | 160 kts | 186° |
| 2026-04-21 16:13 | 40.28673 | 33.14005 | 5550 ft | 160 kts | 186° |
| 2026-04-21 16:13 | 40.27610 | 33.13663 | 5535 ft | 160 kts | 209° |
| 2026-04-21 16:13 | 40.26710 | 33.12797 | 5567 ft | 160 kts | 219° |
| 2026-04-21 16:13 | 40.25840 | 33.11864 | 5546 ft | 161 kts | 219° |
| 2026-04-21 16:14 | 40.25018 | 33.10990 | 5565 ft | 141 kts | 217° |
| 2026-04-21 16:14 | 40.24271 | 33.10273 | 5513 ft | 130 kts | 216° |
| 2026-04-21 16:14 | 40.23537 | 33.09583 | 5377 ft | 129 kts | 216° |
| 2026-04-21 16:14 | 40.22818 | 33.08904 | 5227 ft | 127 kts | 216° |
| 2026-04-21 16:15 | 40.22096 | 33.08217 | 5067 ft | 128 kts | 216° |
| 2026-04-21 16:15 | 40.21382 | 33.07536 | 4872 ft | 133 kts | 217° |
| 2026-04-21 16:15 | 40.20634 | 33.06744 | 4939 ft | 132 kts | 219° |
| 2026-04-21 16:15 | 40.19909 | 33.05969 | 4703 ft | 136 kts | 216° |
| 2026-04-21 16:16 | 40.19051 | 33.05293 | 4068 ft | 152 kts | 212° |
| 2026-04-21 16:16 | 40.18223 | 33.04419 | 4027 ft | 150 kts | 219° |
| 2026-04-21 16:16 | 40.17406 | 33.03676 | 3987 ft | 135 kts | 217° |
| 2026-04-21 16:16 | 40.16606 | 33.02938 | 3632 ft | 145 kts | 219° |
| 2026-04-21 16:17 | 40.15808 | 33.02198 | 3645 ft | 134 kts | 219° |
| 2026-04-21 16:17 | 40.15096 | 33.01482 | 3367 ft | 133 kts | 217° |
| 2026-04-21 16:17 | 40.14351 | 33.00821 | 3253 ft | 121 kts | 218° |
| 2026-04-21 16:17 | 40.13695 | 33.00209 | 3134 ft | 107 kts | 215° |
| 2026-04-21 16:18 | 40.13161 | 32.99682 | 3127 ft | 78 kts | 216° |
| 2026-04-21 16:18 | 40.12837 | 32.99368 | 3124 ft | 48 kts | 217° |
| 2026-04-21 16:18 | 40.12593 | 32.99141 | 3121 ft | 38 kts | 216° |
| 2026-04-21 16:18 | 40.12398 | 32.98966 | 3121 ft | 26 kts | 208° |
| 2026-04-21 16:19 | 40.12279 | 32.98923 | 3122 ft | 12 kts | 186° |
| 2026-04-21 16:19 | 40.12240 | 32.98918 | 3121 ft | 0 kts | 184° |
| 2026-04-21 16:19 | 40.12237 | 32.98917 | 3121 ft | 2 kts | 184° |
| 2026-04-21 16:19 | 40.12122 | 32.98903 | 3122 ft | 21 kts | 186° |
| 2026-04-21 16:20 | 40.11989 | 32.98877 | 3124 ft | 17 kts | 188° |
| 2026-04-21 16:20 | 40.11890 | 32.98900 | 3124 ft | 14 kts | 139° |
| 2026-04-21 16:20 | 40.11829 | 32.98992 | 3126 ft | 12 kts | 127° |
| 2026-04-21 16:20 | 40.11775 | 32.99080 | 3128 ft | 12 kts | 136° |
| 2026-04-21 16:21 | 40.11688 | 32.99133 | 3129 ft | 14 kts | 164° |
| 2026-04-21 16:21 | 40.11639 | 32.99159 | 3129 ft | 3 kts | 153° |
| 2026-04-21 16:21 | 40.11636 | 32.99162 | 3129 ft | 0 kts | 153° |